createdAt,value
2019-04-28T00:01:41.036Z,8.80
2019-04-28T00:04:13.909Z,5.37
2019-04-28T00:06:46.615Z,7.57
2019-04-28T00:09:19.301Z,5.80
2019-04-28T00:11:51.810Z,7.67
2019-04-28T00:14:24.377Z,9.77
2019-04-28T00:16:56.901Z,8.23
2019-04-28T00:19:30.858Z,9.00
2019-04-28T00:22:12.383Z,10.50
2019-04-28T00:25:05.352Z,9.47
2019-04-28T00:27:37.549Z,7.63
2019-04-28T00:30:11.718Z,8.50
2019-04-28T00:32:43.694Z,9.17
2019-04-28T00:35:15.506Z,6.70
2019-04-28T00:37:47.699Z,9.87
2019-04-28T00:40:19.609Z,9.17
2019-04-28T00:42:51.350Z,8.50
2019-04-28T00:45:23.387Z,6.63
2019-04-28T00:47:55.334Z,8.10
2019-04-28T00:50:27.241Z,8.37
2019-04-28T00:52:59.067Z,8.17
2019-04-28T00:55:31.998Z,11.20
2019-04-28T00:58:03.888Z,9.67
2019-04-28T01:00:37.580Z,8.47
2019-04-28T01:03:09.462Z,12.23
2019-04-28T01:05:41.272Z,9.90
2019-04-28T01:08:13.090Z,12.23
2019-04-28T01:10:45.000Z,7.10
2019-04-28T01:13:16.849Z,6.57
2019-04-28T01:15:56.328Z,9.17
2019-04-28T01:18:42.555Z,7.90
2019-04-28T01:21:14.996Z,13.17
2019-04-28T01:23:47.571Z,12.27
2019-04-28T01:26:20.128Z,13.27
2019-04-28T01:28:52.896Z,15.83
2019-04-28T01:31:45.320Z,15.67
2019-04-28T01:34:20.621Z,16.83
2019-04-28T01:36:53.556Z,13.67
2019-04-28T01:39:25.984Z,19.30
2019-04-28T01:41:59.553Z,19.37
2019-04-28T01:44:32.293Z,17.80
2019-04-28T01:47:04.876Z,22.27
2019-04-28T01:49:36.921Z,24.03
2019-04-28T01:52:10.357Z,19.83
2019-04-28T01:54:42.256Z,24.80
2019-04-28T01:57:13.988Z,26.67
2019-04-28T01:59:45.700Z,19.50
2019-04-28T02:02:17.547Z,23.20
2019-04-28T02:04:49.903Z,20.87
2019-04-28T02:07:21.963Z,19.03
2019-04-28T02:09:53.700Z,23.40
2019-04-28T02:12:25.875Z,28.50
2019-04-28T02:14:58.088Z,21.90
2019-04-28T02:17:32.576Z,20.97
2019-04-28T02:20:06.058Z,19.40
2019-04-28T02:22:57.637Z,24.93
2019-04-28T02:25:29.776Z,25.67
2019-04-28T02:28:01.809Z,31.23
2019-04-28T02:30:45.450Z,26.77
2019-04-28T02:33:07.237Z,24.33
2019-04-28T02:35:41.457Z,33.57
2019-04-28T02:38:12.565Z,30.73
2019-04-28T02:40:44.701Z,26.40
2019-04-28T02:43:16.522Z,32.80
2019-04-28T02:45:53.015Z,34.50
2019-04-28T02:48:25.444Z,34.80
2019-04-28T02:51:06.015Z,39.33
2019-04-28T02:53:42.504Z,39.07
2019-04-28T02:56:14.248Z,37.17
2019-04-28T02:58:46.046Z,37.33
2019-04-28T03:01:22.727Z,41.83
2019-04-28T03:03:51.497Z,40.43
2019-04-28T03:06:23.485Z,39.27
2019-04-28T03:08:55.206Z,36.77
2019-04-28T03:11:27.025Z,46.63
2019-04-28T03:14:01.011Z,44.57
2019-04-28T03:16:32.796Z,44.13
2019-04-28T03:19:04.527Z,34.93
2019-04-28T03:21:36.275Z,51.63
2019-04-28T03:24:08.073Z,45.33
2019-04-28T03:26:47.304Z,46.67
2019-04-28T03:29:37.395Z,45.00
2019-04-28T03:32:31.144Z,39.80
2019-04-28T03:34:53.150Z,40.53
2019-04-28T03:37:24.138Z,41.37
2019-04-28T03:39:56.091Z,42.17
2019-04-28T03:42:27.810Z,42.10
2019-04-28T03:45:01.503Z,46.43
2019-04-28T03:47:33.349Z,49.53
2019-04-28T03:50:05.522Z,39.70
2019-04-28T03:52:37.340Z,39.93
2019-04-28T03:55:11.086Z,43.20
2019-04-28T03:57:42.696Z,45.53
2019-04-28T04:00:14.706Z,39.27
2019-04-28T04:02:46.421Z,37.93
2019-04-28T04:05:20.601Z,43.63
2019-04-28T04:07:51.735Z,40.77
2019-04-28T04:10:31.417Z,50.40
2019-04-28T04:13:10.778Z,47.77
2019-04-28T04:15:56.327Z,41.13
2019-04-28T04:18:36.199Z,53.87
2019-04-28T04:21:10.737Z,49.40
2019-04-28T04:23:41.564Z,51.30
2019-04-28T04:26:13.278Z,60.90
2019-04-28T04:28:45.124Z,55.40
2019-04-28T04:31:16.837Z,54.30
2019-04-28T04:33:50.559Z,46.43
2019-04-28T04:36:22.318Z,52.73
2019-04-28T04:38:54.098Z,46.30
2019-04-28T04:41:25.885Z,45.90
2019-04-28T04:43:57.728Z,40.37
2019-04-28T04:46:31.353Z,47.77
2019-04-28T04:49:03.190Z,53.97
2019-04-28T04:51:34.896Z,51.90
2019-04-28T04:54:06.663Z,45.50
2019-04-28T04:56:40.141Z,49.20
2019-04-28T04:59:12.078Z,50.77
2019-04-28T05:01:53.683Z,42.97
2019-04-28T05:04:47.805Z,40.27
2019-04-28T05:07:19.743Z,41.60
2019-04-28T05:09:51.663Z,43.23
2019-04-28T05:12:23.392Z,44.40
2019-04-28T05:14:55.255Z,40.10
2019-04-28T05:17:26.969Z,40.07
2019-04-28T05:19:59.707Z,38.47
2019-04-28T05:22:35.588Z,35.30
2019-04-28T05:25:12.292Z,35.83
2019-04-28T05:27:49.930Z,40.33
2019-04-28T05:30:22.792Z,52.23
2019-04-28T05:32:56.539Z,47.80
2019-04-28T05:35:29.412Z,39.73
2019-04-28T05:38:01.297Z,49.60
2019-04-28T05:40:33.018Z,39.73
2019-04-28T05:43:04.727Z,44.93
2019-04-28T05:45:36.532Z,38.27
2019-04-28T05:48:10.772Z,38.67
2019-04-28T05:50:47.280Z,42.37
2019-04-28T05:53:31.193Z,38.47
2019-04-28T05:56:29.896Z,37.67
2019-04-28T05:59:06.495Z,46.03
2019-04-28T06:01:56.672Z,40.07
2019-04-28T06:04:30.422Z,38.70
2019-04-28T06:07:10.084Z,40.67
2019-04-28T06:09:45.964Z,40.20
2019-04-28T06:12:20.023Z,33.80
2019-04-28T06:14:51.682Z,43.37
2019-04-28T06:17:23.513Z,36.17
2019-04-28T06:19:55.322Z,43.07
2019-04-28T06:22:27.028Z,43.33
2019-04-28T06:24:58.854Z,33.27
2019-04-28T06:27:32.660Z,41.20
2019-04-28T06:30:04.799Z,36.20
2019-04-28T06:32:36.505Z,43.37
2019-04-28T06:35:08.432Z,39.37
2019-04-28T06:37:40.145Z,34.30
2019-04-28T06:40:12.361Z,33.97
2019-04-28T06:42:44.049Z,36.27
2019-04-28T06:45:15.783Z,39.90
2019-04-28T06:47:47.505Z,36.03
2019-04-28T06:50:19.639Z,32.63
2019-04-28T06:52:51.464Z,34.57
2019-04-28T06:55:23.185Z,44.33
2019-04-28T06:57:54.917Z,32.70
2019-04-28T07:00:26.732Z,37.63
2019-04-28T07:02:58.540Z,40.33
2019-04-28T07:05:30.471Z,36.27
2019-04-28T07:08:02.475Z,34.33
2019-04-28T07:10:34.201Z,35.00
2019-04-28T07:13:06.038Z,39.97
2019-04-28T07:15:37.799Z,33.60
2019-04-28T07:18:09.603Z,30.07
2019-04-28T07:20:48.272Z,31.23
2019-04-28T07:23:19.972Z,36.63
2019-04-28T07:25:51.692Z,35.03
2019-04-28T07:28:23.421Z,34.47
2019-04-28T07:30:55.153Z,29.67
2019-04-28T07:33:35.839Z,26.70
2019-04-28T07:36:00.493Z,22.30
2019-04-28T07:38:32.338Z,19.00
2019-04-28T07:41:04.245Z,22.97
2019-04-28T07:43:35.955Z,25.50
2019-04-28T07:46:07.692Z,23.03
2019-04-28T07:48:39.491Z,20.30
2019-04-28T07:51:11.321Z,20.67
2019-04-28T07:53:49.942Z,16.20
2019-04-28T07:56:21.683Z,19.20
2019-04-28T07:58:53.572Z,18.27
2019-04-28T08:01:25.291Z,17.27
2019-04-28T08:03:57.607Z,18.13
2019-04-28T08:06:29.565Z,7.23
2019-04-28T08:09:02.496Z,10.13
2019-04-28T08:11:34.415Z,6.57
2019-04-28T08:14:06.211Z,10.80
2019-04-28T08:16:37.944Z,12.63
2019-04-28T08:19:09.652Z,7.03
2019-04-28T08:21:41.470Z,6.17
2019-04-28T08:24:13.172Z,12.00
2019-04-28T08:26:44.897Z,8.13
2019-04-28T08:29:16.601Z,6.03
2019-04-28T08:31:55.733Z,6.50
2019-04-28T08:34:27.433Z,11.40
2019-04-28T08:36:59.176Z,5.40
2019-04-28T08:39:30.916Z,8.67
2019-04-28T08:42:03.035Z,8.80
2019-04-28T08:44:34.844Z,4.73
2019-04-28T08:47:06.568Z,7.53
2019-04-28T08:49:38.301Z,5.83
2019-04-28T08:52:10.056Z,6.03
2019-04-28T08:54:41.763Z,4.97
2019-04-28T08:57:13.584Z,11.33
2019-04-28T08:59:45.313Z,8.67
2019-04-28T09:02:17.129Z,6.30
2019-04-28T09:04:48.840Z,6.07
2019-04-28T09:07:20.604Z,6.13
2019-04-28T09:09:52.556Z,8.70
2019-04-28T09:12:24.384Z,4.43
2019-04-28T09:14:56.092Z,12.13
2019-04-28T09:17:27.940Z,7.10
2019-04-28T09:19:59.682Z,8.17
2019-04-28T09:22:37.748Z,8.93
2019-04-28T09:25:09.564Z,6.97
2019-04-28T09:27:41.320Z,9.67
2019-04-28T09:30:13.364Z,6.57
2019-04-28T09:32:45.157Z,8.23
2019-04-28T09:35:16.887Z,10.47
2019-04-28T09:37:48.652Z,8.93
2019-04-28T09:40:20.461Z,6.77
2019-04-28T09:43:04.742Z,6.77
2019-04-28T09:45:57.194Z,5.80
2019-04-28T09:48:29.006Z,8.80
2019-04-28T09:51:00.748Z,4.80
2019-04-28T09:53:32.566Z,5.90
2019-04-28T09:56:04.589Z,5.40
2019-04-28T09:58:36.353Z,5.63
2019-04-28T10:01:08.183Z,5.77
2019-04-28T10:03:39.908Z,5.83
2019-04-28T10:06:11.614Z,8.00
2019-04-28T10:08:43.461Z,6.33
2019-04-28T10:11:15.202Z,10.03
2019-04-28T10:13:46.981Z,6.93
2019-04-28T10:16:18.802Z,14.30
2019-04-28T10:18:50.537Z,6.43
2019-04-28T10:21:22.268Z,6.27
2019-04-28T10:23:53.990Z,10.73
2019-04-28T10:26:25.709Z,6.57
2019-04-28T10:28:57.553Z,8.23
2019-04-28T10:31:29.352Z,6.97
2019-04-28T10:34:03.380Z,7.10
2019-04-28T10:36:35.404Z,5.30
2019-04-28T10:39:24.748Z,5.30
2019-04-28T10:41:56.509Z,4.57
2019-04-28T10:44:29.927Z,8.80
2019-04-28T10:47:01.655Z,7.17
2019-04-28T10:49:33.476Z,3.63
2019-04-28T10:52:05.211Z,7.70
2019-04-28T10:54:37.011Z,6.00
2019-04-28T10:57:08.826Z,6.30
2019-04-28T10:59:40.737Z,6.70
2019-04-28T11:02:12.650Z,9.33
2019-04-28T11:05:08.542Z,6.17
2019-04-28T11:07:40.419Z,6.63
2019-04-28T11:10:16.692Z,4.60
2019-04-28T11:12:48.442Z,7.27
2019-04-28T11:15:25.438Z,9.90
2019-04-28T11:17:57.188Z,5.10
2019-04-28T11:20:29.149Z,5.47
2019-04-28T11:23:00.854Z,5.20
2019-04-28T11:25:32.788Z,3.17
2019-04-28T11:28:12.481Z,6.70
2019-04-28T11:30:44.296Z,7.20
2019-04-28T11:33:44.423Z,5.03
2019-04-28T11:36:18.100Z,3.53
2019-04-28T11:38:49.945Z,5.43
2019-04-28T11:41:21.870Z,8.33
2019-04-28T11:43:53.572Z,5.93
2019-04-28T11:46:26.200Z,6.93
2019-04-28T11:48:57.915Z,7.47
2019-04-28T11:51:29.769Z,5.20
2019-04-28T11:54:01.697Z,8.07
2019-04-28T11:56:41.333Z,5.93
2019-04-28T11:59:07.145Z,5.03
2019-04-28T12:01:38.894Z,3.90
2019-04-28T12:04:13.018Z,4.80
2019-04-28T12:06:44.760Z,2.13
2019-04-28T12:09:48.313Z,3.03
2019-04-28T12:12:30.033Z,3.87
2019-04-28T12:15:15.464Z,6.17
2019-04-28T12:18:05.731Z,8.73
2019-04-28T12:20:37.566Z,8.57
2019-04-28T12:23:09.820Z,5.50
2019-04-28T12:25:41.903Z,6.77
2019-04-28T12:28:13.649Z,5.80
2019-04-28T12:30:45.474Z,9.47
2019-04-28T12:33:17.196Z,14.87
2019-04-28T12:35:48.988Z,8.77
2019-04-28T12:38:20.814Z,6.13
2019-04-28T12:40:52.632Z,8.97
2019-04-28T12:43:24.361Z,7.17
2019-04-28T12:45:56.085Z,7.87
2019-04-28T12:48:27.811Z,2.60
2019-04-28T12:51:02.437Z,3.13
2019-04-28T12:53:34.465Z,3.77
2019-04-28T12:56:06.485Z,6.30
2019-04-28T12:58:38.316Z,2.63
2019-04-28T13:01:27.142Z,4.43
2019-04-28T13:04:13.775Z,2.77
2019-04-28T13:07:01.103Z,12.33
2019-04-28T13:09:32.944Z,13.97
2019-04-28T13:12:05.325Z,3.27
2019-04-28T13:14:37.070Z,9.00
2019-04-28T13:17:08.813Z,4.93
2019-04-28T13:19:40.560Z,5.33
2019-04-28T13:22:12.399Z,3.73
2019-04-28T13:24:44.269Z,4.77
2019-04-28T13:27:16.029Z,3.27
2019-04-28T13:29:47.774Z,7.10
2019-04-28T13:32:19.601Z,4.00
2019-04-28T13:34:51.364Z,5.83
2019-04-28T13:37:23.082Z,5.70
2019-04-28T13:39:58.641Z,4.27
2019-04-28T13:42:30.489Z,5.77
2019-04-28T13:45:09.987Z,3.00
2019-04-28T13:47:41.787Z,3.97
2019-04-28T13:50:37.061Z,4.40
2019-04-28T13:53:08.901Z,5.33
2019-04-28T13:56:03.064Z,8.20
2019-04-28T13:58:37.698Z,4.63
2019-04-28T14:01:27.896Z,5.53
2019-04-28T14:04:25.506Z,5.60
2019-04-28T14:07:02.622Z,5.53
2019-04-28T14:09:34.396Z,5.20
2019-04-28T14:12:06.440Z,4.80
2019-04-28T14:14:38.279Z,12.07
2019-04-28T14:17:10.041Z,3.83
2019-04-28T14:19:41.807Z,7.47
2019-04-28T14:22:13.644Z,3.13
2019-04-28T14:24:45.512Z,5.27
2019-04-28T14:27:17.409Z,2.90
2019-04-28T14:29:49.262Z,3.93
2019-04-28T14:32:21.137Z,4.00
2019-04-28T14:34:52.995Z,4.43
2019-04-28T14:37:24.771Z,4.23
2019-04-28T14:39:56.699Z,4.63
2019-04-28T14:42:28.484Z,10.00
2019-04-28T14:45:00.262Z,11.77
2019-04-28T14:47:32.073Z,5.47
2019-04-28T14:50:04.131Z,4.43
2019-04-28T14:52:35.921Z,8.67
2019-04-28T14:55:07.860Z,5.70
2019-04-28T14:57:39.701Z,7.27
2019-04-28T15:00:14.143Z,8.30
2019-04-28T15:02:54.653Z,5.67
2019-04-28T15:05:39.225Z,3.90
2019-04-28T15:08:30.765Z,3.57
2019-04-28T15:11:07.631Z,5.13
2019-04-28T15:13:39.513Z,8.93
2019-04-28T15:16:11.349Z,5.53
2019-04-28T15:18:43.161Z,4.33
2019-04-28T15:21:15.004Z,2.80
2019-04-28T15:23:46.724Z,7.67
2019-04-28T15:26:18.556Z,4.30
2019-04-28T15:28:50.406Z,11.63
2019-04-28T15:31:22.193Z,4.50
2019-04-28T15:33:53.915Z,4.07
2019-04-28T15:36:25.660Z,2.93
2019-04-28T15:38:57.526Z,6.40
2019-04-28T15:41:29.352Z,6.57
2019-04-28T15:44:01.074Z,4.17
2019-04-28T15:46:33.029Z,4.10
2019-04-28T15:49:04.757Z,5.00
2019-04-28T15:51:36.493Z,5.80
2019-04-28T15:54:08.219Z,3.67
2019-04-28T15:56:47.723Z,4.07
2019-04-28T15:59:21.716Z,6.20
2019-04-28T16:01:53.465Z,5.30
2019-04-28T16:04:25.314Z,2.47
2019-04-28T16:06:57.165Z,4.67
2019-04-28T16:09:28.881Z,5.30
2019-04-28T16:12:00.647Z,3.10
2019-04-28T16:14:32.474Z,5.77
2019-04-28T16:17:04.408Z,8.27
2019-04-28T16:19:36.160Z,5.70
2019-04-28T16:22:07.896Z,2.80
2019-04-28T16:24:39.622Z,3.77
2019-04-28T16:27:11.371Z,3.97
2019-04-28T16:29:43.125Z,13.57
2019-04-28T16:32:14.875Z,5.23
2019-04-28T16:34:46.692Z,4.37
2019-04-28T16:37:18.454Z,3.43
2019-04-28T16:39:50.389Z,2.43
2019-04-28T16:42:27.501Z,2.73
2019-04-28T16:45:00.826Z,4.50
2019-04-28T16:47:32.581Z,6.47
2019-04-28T16:50:04.561Z,3.97
2019-04-28T16:52:36.327Z,9.17
2019-04-28T16:55:33.968Z,3.97
2019-04-28T16:58:19.578Z,5.43
2019-04-28T17:01:07.084Z,5.17
2019-04-28T17:03:38.817Z,3.43
2019-04-28T17:06:10.577Z,3.60
2019-04-28T17:08:44.638Z,5.47
2019-04-28T17:11:16.091Z,5.20
2019-04-28T17:13:47.999Z,5.27
2019-04-28T17:16:20.004Z,9.10
2019-04-28T17:18:51.839Z,5.20
2019-04-28T17:21:23.859Z,3.63
2019-04-28T17:23:55.725Z,3.70
2019-04-28T17:26:27.461Z,8.03
2019-04-28T17:28:59.260Z,2.73
2019-04-28T17:31:31.088Z,2.23
2019-04-28T17:34:03.987Z,4.20
2019-04-28T17:36:36.045Z,3.73
2019-04-28T17:39:13.986Z,3.27
2019-04-28T17:41:45.745Z,5.80
2019-04-28T17:44:17.768Z,8.33
2019-04-28T17:46:49.755Z,5.27
2019-04-28T17:49:28.765Z,5.00
2019-04-28T17:52:00.516Z,3.13
2019-04-28T17:54:32.609Z,4.70
2019-04-28T17:57:05.585Z,5.30
2019-04-28T17:59:37.634Z,4.80
2019-04-28T18:02:31.667Z,3.17
2019-04-28T18:05:32.681Z,5.50
2019-04-28T18:08:04.865Z,4.70
2019-04-28T18:10:36.769Z,4.87
2019-04-28T18:13:08.924Z,9.63
2019-04-28T18:16:18.597Z,15.37
2019-04-28T18:18:55.245Z,13.60
2019-04-28T18:21:27.333Z,6.17
2019-04-28T18:23:59.213Z,8.57
2019-04-28T18:26:31.052Z,7.53
2019-04-28T18:29:02.921Z,7.83
2019-04-28T18:31:50.268Z,7.73
2019-04-28T18:34:40.291Z,9.90
2019-04-28T18:37:31.920Z,5.87
2019-04-28T18:40:15.257Z,8.33
2019-04-28T18:42:56.943Z,12.00
2019-04-28T18:45:29.008Z,7.77
2019-04-28T18:48:00.859Z,7.10
2019-04-28T18:50:34.816Z,8.10
2019-04-28T18:53:07.413Z,8.47
2019-04-28T18:55:39.512Z,7.43
2019-04-28T18:58:11.617Z,10.33
2019-04-28T19:00:49.592Z,7.20
2019-04-28T19:03:21.502Z,11.37
2019-04-28T19:05:54.402Z,6.37
2019-04-28T19:08:49.183Z,7.93
2019-04-28T19:11:30.259Z,10.83
2019-04-28T19:14:09.379Z,11.03
2019-04-28T19:16:57.337Z,13.67
2019-04-28T19:19:31.030Z,5.50
2019-04-28T19:22:03.752Z,9.50
2019-04-28T19:24:37.061Z,5.63
2019-04-28T19:27:09.909Z,7.63
2019-04-28T19:29:43.042Z,9.67
2019-04-28T19:32:15.990Z,11.90
2019-04-28T19:34:49.096Z,7.40
2019-04-28T19:37:21.871Z,8.90
2019-04-28T19:39:54.791Z,7.47
2019-04-28T19:42:27.509Z,4.77
2019-04-28T19:45:00.102Z,12.67
2019-04-28T19:47:32.864Z,3.77
2019-04-28T19:50:05.552Z,6.13
2019-04-28T19:52:40.948Z,6.67
2019-04-28T19:55:18.348Z,6.03
2019-04-28T19:57:57.355Z,7.50
2019-04-28T20:00:37.432Z,12.00
2019-04-28T20:03:10.345Z,5.23
2019-04-28T20:05:43.058Z,10.07
2019-04-28T20:08:15.589Z,6.67
2019-04-28T20:10:47.963Z,11.00
2019-04-28T20:13:20.633Z,9.27
2019-04-28T20:15:52.544Z,11.13
2019-04-28T20:18:24.581Z,11.60
2019-04-28T20:20:56.721Z,11.93
2019-04-28T20:23:28.744Z,7.23
2019-04-28T20:26:00.876Z,9.30
2019-04-28T20:28:32.969Z,8.47
2019-04-28T20:31:05.717Z,6.73
2019-04-28T20:33:37.547Z,4.17
2019-04-28T20:36:24.518Z,5.90
2019-04-28T20:39:00.397Z,10.03
2019-04-28T20:41:32.334Z,8.87
2019-04-28T20:44:04.162Z,9.50
2019-04-28T20:46:35.985Z,6.97
2019-04-28T20:49:07.818Z,4.97
2019-04-28T20:51:39.507Z,4.00
2019-04-28T20:54:11.235Z,6.17
2019-04-28T20:56:42.932Z,5.07
2019-04-28T20:59:14.652Z,11.83
2019-04-28T21:01:46.378Z,7.47
2019-04-28T21:04:18.288Z,8.33
2019-04-28T21:06:50.004Z,4.93
2019-04-28T21:09:21.819Z,5.00
2019-04-28T21:11:53.524Z,9.57
2019-04-28T21:14:25.268Z,4.57
2019-04-28T21:16:57.076Z,11.63
2019-04-28T21:19:28.800Z,9.37
2019-04-28T21:22:00.604Z,7.33
2019-04-28T21:24:32.323Z,9.47
2019-04-28T21:27:04.037Z,6.33
2019-04-28T21:29:35.778Z,4.17
2019-04-28T21:32:07.578Z,5.07
2019-04-28T21:34:39.312Z,7.10
2019-04-28T21:37:11.042Z,5.73
2019-04-28T21:39:42.789Z,8.83
2019-04-28T21:42:17.460Z,11.70
2019-04-28T21:44:58.144Z,5.03
2019-04-28T21:47:31.757Z,7.27
2019-04-28T21:50:03.752Z,6.87
2019-04-28T21:52:35.552Z,7.70
2019-04-28T21:55:07.366Z,6.73
2019-04-28T21:57:39.067Z,6.17
2019-04-28T22:00:11.228Z,9.87
2019-04-28T22:02:43.085Z,7.90
2019-04-28T22:05:14.988Z,6.97
2019-04-28T22:07:46.727Z,10.67
2019-04-28T22:10:18.550Z,6.70
2019-04-28T22:12:50.257Z,10.23
2019-04-28T22:15:21.992Z,7.30
2019-04-28T22:17:53.722Z,8.87
2019-04-28T22:20:25.452Z,8.03
2019-04-28T22:22:59.069Z,7.97
2019-04-28T22:25:30.790Z,9.10
2019-04-28T22:28:02.733Z,8.47
2019-04-28T22:30:34.476Z,9.83
2019-04-28T22:33:06.297Z,11.23
2019-04-28T22:35:38.025Z,7.87
2019-04-28T22:38:09.741Z,9.33
2019-04-28T22:40:41.477Z,8.17
2019-04-28T22:43:13.285Z,8.97
2019-04-28T22:45:45.028Z,9.20
2019-04-28T22:48:20.762Z,7.40
2019-04-28T22:50:52.688Z,10.17
2019-04-28T22:53:31.157Z,9.10
2019-04-28T22:56:21.330Z,21.73
2019-04-28T22:58:56.924Z,6.57
2019-04-28T23:01:31.352Z,9.73
2019-04-28T23:04:06.466Z,9.90
2019-04-28T23:06:38.397Z,8.40
2019-04-28T23:09:12.733Z,8.93
2019-04-28T23:11:44.625Z,8.07
2019-04-28T23:14:16.432Z,8.30
2019-04-28T23:16:48.356Z,9.30
2019-04-28T23:19:22.317Z,9.60
2019-04-28T23:22:16.431Z,8.07
2019-04-28T23:24:48.149Z,12.93
2019-04-28T23:27:19.880Z,7.73
2019-04-28T23:29:51.598Z,8.67
2019-04-28T23:32:23.367Z,8.57
2019-04-28T23:34:55.184Z,10.07
2019-04-28T23:37:27.029Z,6.83
2019-04-28T23:39:58.753Z,9.10
2019-04-28T23:42:38.257Z,12.33
2019-04-28T23:45:12.209Z,9.53
2019-04-28T23:47:43.744Z,6.63
2019-04-28T23:50:17.484Z,6.80
2019-04-28T23:52:57.981Z,9.37
2019-04-28T23:55:29.688Z,7.30
2019-04-28T23:58:01.413Z,8.33
